createdAt,value
2018-04-15T00:00:15.881Z,0
2018-04-15T00:00:56.429Z,0
2018-04-15T00:01:37.028Z,0
2018-04-15T00:02:17.490Z,0
2018-04-15T00:02:57.984Z,0
2018-04-15T00:03:38.446Z,0
2018-04-15T00:04:18.952Z,0
2018-04-15T00:04:59.426Z,0
2018-04-15T00:05:39.949Z,0
2018-04-15T00:06:20.501Z,0
2018-04-15T00:07:00.986Z,0
2018-04-15T00:07:41.555Z,0
2018-04-15T00:08:21.982Z,0
2018-04-15T00:09:02.471Z,0
2018-04-15T00:09:42.988Z,0
2018-04-15T00:10:23.503Z,0
2018-04-15T00:11:03.998Z,0
2018-04-15T00:11:44.477Z,0
2018-04-15T00:12:25.026Z,0
2018-04-15T00:13:05.478Z,0
2018-04-15T00:13:45.987Z,0
2018-04-15T00:14:26.458Z,0
2018-04-15T00:15:06.963Z,0
2018-04-15T00:15:47.519Z,0
2018-04-15T00:16:27.982Z,0
2018-04-15T00:17:08.472Z,0
2018-04-15T00:17:49.079Z,0
2018-04-15T00:18:29.580Z,0
2018-04-15T00:19:10.038Z,0
2018-04-15T00:19:50.517Z,0
2018-04-15T00:20:31.041Z,0
2018-04-15T00:21:11.527Z,0
2018-04-15T00:21:52.071Z,0
2018-04-15T00:22:32.528Z,0
2018-04-15T00:23:13.037Z,0
2018-04-15T00:23:53.529Z,0
2018-04-15T00:24:34.083Z,0
2018-04-15T00:25:14.613Z,0
2018-04-15T00:25:55.090Z,0
2018-04-15T00:26:35.618Z,0
2018-04-15T00:27:16.090Z,0
2018-04-15T00:27:56.579Z,0
2018-04-15T00:28:37.075Z,0
2018-04-15T00:29:17.591Z,0
2018-04-15T00:29:58.108Z,0
2018-04-15T00:30:38.628Z,0
2018-04-15T00:31:19.163Z,0
2018-04-15T00:31:59.637Z,0
2018-04-15T00:32:40.160Z,0
2018-04-15T00:33:20.631Z,0
2018-04-15T00:34:01.169Z,0
2018-04-15T00:34:41.621Z,0
2018-04-15T00:35:22.156Z,0
2018-04-15T00:36:02.713Z,0
2018-04-15T00:36:43.149Z,0
2018-04-15T00:37:23.657Z,0
2018-04-15T00:38:04.120Z,0
2018-04-15T00:38:44.597Z,0
2018-04-15T00:39:25.056Z,0
2018-04-15T00:40:05.606Z,0
2018-04-15T00:40:46.179Z,0
2018-04-15T00:41:26.739Z,0
2018-04-15T00:42:07.306Z,0
2018-04-15T00:42:47.809Z,0
2018-04-15T00:43:28.342Z,0
2018-04-15T00:44:09.038Z,0
2018-04-15T00:44:49.500Z,0
2018-04-15T00:45:30.013Z,0
2018-04-15T00:46:10.525Z,0
2018-04-15T00:46:50.985Z,0
2018-04-15T00:47:31.504Z,0
2018-04-15T00:48:11.973Z,0
2018-04-15T00:48:52.481Z,0
2018-04-15T00:49:32.973Z,0
2018-04-15T00:50:13.475Z,0
2018-04-15T00:50:53.939Z,0
2018-04-15T00:51:34.378Z,0
2018-04-15T00:52:14.897Z,0
2018-04-15T00:52:55.425Z,0
2018-04-15T00:53:35.886Z,0
2018-04-15T00:54:16.388Z,0
2018-04-15T00:54:56.815Z,0
2018-04-15T00:55:37.331Z,0
2018-04-15T00:56:17.818Z,0
2018-04-15T00:56:58.312Z,0
2018-04-15T00:57:38.812Z,0
2018-04-15T00:58:19.325Z,0
2018-04-15T00:58:59.827Z,0
2018-04-15T00:59:40.256Z,0
2018-04-15T01:00:20.797Z,0
2018-04-15T01:01:01.269Z,0
2018-04-15T01:01:41.802Z,0
2018-04-15T01:02:22.271Z,0
2018-04-15T01:03:02.817Z,0
2018-04-15T01:03:43.342Z,0
2018-04-15T01:04:23.868Z,0
2018-04-15T01:05:04.349Z,0
2018-04-15T01:05:44.877Z,0
2018-04-15T01:06:25.332Z,0
2018-04-15T01:07:05.831Z,0
2018-04-15T01:07:46.390Z,0
2018-04-15T01:08:26.876Z,0
2018-04-15T01:09:07.366Z,0
2018-04-15T01:09:47.889Z,0
2018-04-15T01:10:28.365Z,0
2018-04-15T01:11:08.884Z,0
2018-04-15T01:11:49.409Z,0
2018-04-15T01:12:29.909Z,0
2018-04-15T01:13:10.376Z,0
2018-04-15T01:13:50.874Z,0
2018-04-15T01:14:31.374Z,0
2018-04-15T01:15:11.902Z,0
2018-04-15T01:15:52.375Z,0
2018-04-15T01:16:32.889Z,0
2018-04-15T01:17:13.391Z,0
2018-04-15T01:17:53.956Z,0
2018-04-15T01:18:34.363Z,0
2018-04-15T01:19:14.923Z,0
2018-04-15T01:19:55.393Z,0
2018-04-15T01:20:35.854Z,0
2018-04-15T01:21:16.351Z,0
2018-04-15T01:21:56.827Z,0
2018-04-15T01:22:37.304Z,0
2018-04-15T01:23:17.800Z,0
2018-04-15T01:23:58.328Z,0
2018-04-15T01:24:38.830Z,0
2018-04-15T01:25:19.311Z,0
2018-04-15T01:25:59.841Z,0
2018-04-15T01:26:40.306Z,0
2018-04-15T01:27:20.812Z,0
2018-04-15T01:28:01.310Z,0
2018-04-15T01:28:41.831Z,0
2018-04-15T01:29:22.329Z,0
2018-04-15T01:30:02.796Z,0
2018-04-15T01:30:43.285Z,0
2018-04-15T01:31:23.790Z,0
2018-04-15T01:32:04.296Z,0
2018-04-15T01:32:44.780Z,0
2018-04-15T01:33:25.304Z,0
2018-04-15T01:34:05.787Z,0
2018-04-15T01:34:46.329Z,0
2018-04-15T01:35:26.819Z,0
2018-04-15T01:36:07.287Z,0
2018-04-15T01:36:47.791Z,0
2018-04-15T01:37:28.304Z,0
2018-04-15T01:38:08.794Z,0
2018-04-15T01:38:49.302Z,0
2018-04-15T01:39:29.793Z,0
2018-04-15T01:40:10.226Z,0
2018-04-15T01:40:51.543Z,0
2018-04-15T01:41:31.248Z,0
2018-04-15T01:42:11.768Z,0
2018-04-15T01:42:52.260Z,0
2018-04-15T01:43:32.796Z,0
2018-04-15T01:44:13.251Z,0
2018-04-15T01:44:53.757Z,0
2018-04-15T01:45:34.432Z,0
2018-04-15T01:46:14.942Z,0
2018-04-15T01:46:55.390Z,0
2018-04-15T01:47:35.882Z,0
2018-04-15T01:48:16.408Z,0
2018-04-15T01:48:56.890Z,0
2018-04-15T01:49:37.418Z,0
2018-04-15T01:50:17.902Z,0
2018-04-15T01:50:58.363Z,0
2018-04-15T01:51:38.856Z,0
2018-04-15T01:52:19.361Z,0
2018-04-15T01:52:59.866Z,0
2018-04-15T01:53:40.400Z,0
2018-04-15T01:54:20.855Z,0
2018-04-15T01:55:01.318Z,0
2018-04-15T01:55:41.851Z,0
2018-04-15T01:56:22.322Z,0
2018-04-15T01:57:02.845Z,0
2018-04-15T01:57:43.382Z,0
2018-04-15T01:58:23.848Z,0
2018-04-15T01:59:04.338Z,0
2018-04-15T01:59:44.820Z,0
2018-04-15T02:00:25.331Z,0
2018-04-15T02:01:05.820Z,0
2018-04-15T02:01:46.367Z,0
2018-04-15T02:02:26.861Z,0
2018-04-15T02:03:07.331Z,0
2018-04-15T02:03:47.865Z,0
2018-04-15T02:04:28.391Z,0
2018-04-15T02:05:08.861Z,0
2018-04-15T02:05:49.348Z,0
2018-04-15T02:06:29.822Z,0
2018-04-15T02:07:10.297Z,0
2018-04-15T02:07:50.778Z,0
2018-04-15T02:08:31.433Z,0
2018-04-15T02:09:11.947Z,0
2018-04-15T02:09:52.427Z,0
2018-04-15T02:10:32.958Z,0
2018-04-15T02:11:13.466Z,0
2018-04-15T02:11:53.916Z,0
2018-04-15T02:12:34.419Z,0
2018-04-15T02:13:14.937Z,0
2018-04-15T02:13:55.397Z,0
2018-04-15T02:14:35.883Z,0
2018-04-15T02:15:16.339Z,0
2018-04-15T02:15:56.944Z,0
2018-04-15T02:16:37.335Z,0
2018-04-15T02:17:17.841Z,0
2018-04-15T02:17:58.304Z,0
2018-04-15T02:18:38.792Z,0
2018-04-15T02:19:19.290Z,0
2018-04-15T02:19:59.777Z,0
2018-04-15T02:20:40.282Z,0
2018-04-15T02:21:20.812Z,0
2018-04-15T02:22:01.285Z,0
2018-04-15T02:22:41.767Z,0
2018-04-15T02:23:22.273Z,0
2018-04-15T02:24:02.760Z,0
2018-04-15T02:24:43.517Z,0
2018-04-15T02:25:23.992Z,0
2018-04-15T02:26:04.517Z,0
2018-04-15T02:26:45.018Z,0
2018-04-15T02:27:25.474Z,0
2018-04-15T02:28:05.995Z,0
2018-04-15T02:28:46.444Z,0
2018-04-15T02:29:26.947Z,0
2018-04-15T02:30:07.425Z,0
2018-04-15T02:30:47.986Z,0
2018-04-15T02:31:28.410Z,0
2018-04-15T02:32:08.940Z,0
2018-04-15T02:32:49.363Z,0
2018-04-15T02:33:29.855Z,0
2018-04-15T02:34:10.358Z,0
2018-04-15T02:34:50.846Z,0
2018-04-15T02:35:31.370Z,0
2018-04-15T02:36:11.837Z,0
2018-04-15T02:36:52.302Z,0
2018-04-15T02:37:32.758Z,0
2018-04-15T02:38:13.278Z,0
2018-04-15T02:38:53.800Z,0
2018-04-15T02:39:34.294Z,0
2018-04-15T02:40:14.776Z,0
2018-04-15T02:40:55.301Z,0
2018-04-15T02:41:35.771Z,0
2018-04-15T02:42:16.259Z,0
2018-04-15T02:42:56.709Z,0
2018-04-15T02:43:37.234Z,0
2018-04-15T02:44:17.758Z,0
2018-04-15T02:44:58.186Z,0
2018-04-15T02:45:38.729Z,0
2018-04-15T02:46:19.159Z,0
2018-04-15T02:46:59.626Z,0
2018-04-15T02:47:40.185Z,0
2018-04-15T02:48:20.637Z,0
2018-04-15T02:49:01.156Z,0
2018-04-15T02:49:41.689Z,0
2018-04-15T02:50:22.178Z,0
2018-04-15T02:51:02.660Z,0
2018-04-15T02:51:43.134Z,0
2018-04-15T02:52:23.704Z,0
2018-04-15T02:53:04.206Z,0
2018-04-15T02:53:44.695Z,0
2018-04-15T02:54:25.203Z,0
2018-04-15T02:55:05.667Z,0
2018-04-15T02:55:46.173Z,0
2018-04-15T02:56:26.658Z,0
2018-04-15T02:57:07.191Z,0
2018-04-15T02:57:47.692Z,0
2018-04-15T02:58:28.211Z,0
2018-04-15T02:59:08.671Z,0
2018-04-15T02:59:49.181Z,0
2018-04-15T03:00:29.660Z,0
2018-04-15T03:01:10.151Z,0
2018-04-15T03:01:50.676Z,0
2018-04-15T03:02:31.102Z,0
2018-04-15T03:03:11.647Z,0
2018-04-15T03:03:52.100Z,0
2018-04-15T03:04:32.653Z,0
2018-04-15T03:05:13.144Z,0
2018-04-15T03:05:53.638Z,0
2018-04-15T03:06:34.148Z,0
2018-04-15T03:07:14.585Z,0
2018-04-15T03:07:55.102Z,0
2018-04-15T03:08:35.564Z,0
2018-04-15T03:09:16.134Z,0
2018-04-15T03:09:56.617Z,0
2018-04-15T03:10:37.065Z,0
2018-04-15T03:11:17.591Z,0
2018-04-15T03:11:58.088Z,0
2018-04-15T03:12:38.592Z,0
2018-04-15T03:13:19.143Z,0
2018-04-15T03:13:59.582Z,0
2018-04-15T03:14:40.091Z,0
2018-04-15T03:15:20.575Z,0
2018-04-15T03:16:01.078Z,0
2018-04-15T03:16:41.598Z,0
2018-04-15T03:17:22.072Z,0
2018-04-15T03:18:02.581Z,0
2018-04-15T03:18:43.066Z,0
2018-04-15T03:19:23.540Z,0
2018-04-15T03:20:04.015Z,0
2018-04-15T03:20:44.488Z,0
2018-04-15T03:21:24.953Z,0
2018-04-15T03:22:05.502Z,0
2018-04-15T03:22:45.968Z,0
2018-04-15T03:23:26.479Z,0
2018-04-15T03:24:06.964Z,0
2018-04-15T03:24:47.444Z,0
2018-04-15T03:25:27.939Z,0
2018-04-15T03:26:08.416Z,0
2018-04-15T03:26:48.910Z,0
2018-04-15T03:27:29.477Z,0
2018-04-15T03:28:09.952Z,0
2018-04-15T03:28:50.420Z,0
2018-04-15T03:29:30.869Z,0
2018-04-15T03:30:11.365Z,0
2018-04-15T03:30:52.027Z,0
2018-04-15T03:31:32.477Z,0
2018-04-15T03:32:12.990Z,0
2018-04-15T03:32:53.432Z,0
2018-04-15T03:33:33.892Z,0
2018-04-15T03:34:14.425Z,0
2018-04-15T03:34:54.895Z,0
2018-04-15T03:35:35.395Z,0
2018-04-15T03:36:15.914Z,0
2018-04-15T03:36:56.375Z,0
2018-04-15T03:37:36.876Z,0
2018-04-15T03:38:17.339Z,0
2018-04-15T03:38:57.876Z,0
2018-04-15T03:39:38.308Z,0
2018-04-15T03:40:18.818Z,0
2018-04-15T03:40:59.281Z,0
2018-04-15T03:41:39.759Z,0
2018-04-15T03:42:20.278Z,0
2018-04-15T03:43:00.746Z,0
2018-04-15T03:43:41.249Z,0
2018-04-15T03:44:21.718Z,0
2018-04-15T03:45:02.213Z,0
2018-04-15T03:45:42.717Z,0
2018-04-15T03:46:23.175Z,0
2018-04-15T03:47:03.654Z,0
2018-04-15T03:47:44.127Z,0
2018-04-15T03:48:24.633Z,0
2018-04-15T03:49:05.122Z,0
2018-04-15T03:49:45.619Z,0
2018-04-15T03:50:26.117Z,0
2018-04-15T03:51:06.621Z,0
2018-04-15T03:51:47.064Z,0
2018-04-15T03:52:27.565Z,0
2018-04-15T03:53:08.066Z,0
2018-04-15T03:53:48.541Z,0
2018-04-15T03:54:29.028Z,0
2018-04-15T03:55:09.505Z,0
2018-04-15T03:55:49.978Z,0
2018-04-15T03:56:30.484Z,0
2018-04-15T03:57:10.979Z,0
2018-04-15T03:57:51.417Z,0
2018-04-15T03:58:31.922Z,0
2018-04-15T03:59:12.669Z,0
2018-04-15T03:59:53.176Z,0
2018-04-15T04:00:33.667Z,0
2018-04-15T04:01:14.167Z,0
2018-04-15T04:01:54.623Z,0
2018-04-15T04:02:35.122Z,0
2018-04-15T04:03:15.648Z,0
2018-04-15T04:03:56.189Z,0
2018-04-15T04:04:36.619Z,0
2018-04-15T04:05:17.131Z,0
2018-04-15T04:05:57.621Z,0
2018-04-15T04:06:38.109Z,0
2018-04-15T04:07:18.596Z,0
2018-04-15T04:07:59.095Z,0
2018-04-15T04:08:39.606Z,0
2018-04-15T04:09:20.113Z,0
2018-04-15T04:10:00.580Z,0
2018-04-15T04:10:41.101Z,0
2018-04-15T04:11:21.565Z,0
2018-04-15T04:12:02.100Z,0
2018-04-15T04:12:42.550Z,0
2018-04-15T04:13:23.063Z,0
2018-04-15T04:14:03.522Z,0
2018-04-15T04:14:44.006Z,0
2018-04-15T04:15:24.503Z,0
2018-04-15T04:16:04.975Z,0
2018-04-15T04:16:45.503Z,0
2018-04-15T04:17:25.993Z,0
2018-04-15T04:18:06.525Z,0
2018-04-15T04:18:47.041Z,0
2018-04-15T04:19:27.559Z,0
2018-04-15T04:20:08.082Z,0
2018-04-15T04:20:48.594Z,0
2018-04-15T04:21:29.128Z,4
2018-04-15T04:22:09.660Z,4
2018-04-15T04:22:50.178Z,4
2018-04-15T04:23:30.692Z,0
2018-04-15T04:24:11.195Z,0
2018-04-15T04:24:51.711Z,0
2018-04-15T04:25:32.230Z,4
2018-04-15T04:26:12.750Z,4
2018-04-15T04:26:53.268Z,4
2018-04-15T04:27:33.794Z,8
2018-04-15T04:28:14.334Z,4
2018-04-15T04:28:54.855Z,4
2018-04-15T04:29:35.377Z,4
2018-04-15T04:30:15.896Z,4
2018-04-15T04:30:56.410Z,4
2018-04-15T04:31:36.927Z,8
2018-04-15T04:32:17.447Z,8
2018-04-15T04:32:57.955Z,8
2018-04-15T04:33:38.484Z,4
2018-04-15T04:34:18.996Z,8
2018-04-15T04:34:59.509Z,8
2018-04-15T04:35:40.028Z,8
2018-04-15T04:36:20.554Z,8
2018-04-15T04:37:01.078Z,8
2018-04-15T04:37:41.594Z,8
2018-04-15T04:38:22.121Z,12
2018-04-15T04:39:02.646Z,12
2018-04-15T04:39:43.171Z,12
2018-04-15T04:40:23.686Z,12
2018-04-15T04:41:04.196Z,16
2018-04-15T04:41:44.721Z,12
2018-04-15T04:42:25.274Z,16
2018-04-15T04:43:05.785Z,16
2018-04-15T04:43:46.303Z,16
2018-04-15T04:44:26.825Z,16
2018-04-15T04:45:07.346Z,20
2018-04-15T04:45:47.882Z,20
2018-04-15T04:46:28.407Z,24
2018-04-15T04:47:08.925Z,24
2018-04-15T04:47:49.435Z,24
2018-04-15T04:48:29.940Z,28
2018-04-15T04:49:10.453Z,24
2018-04-15T04:49:51.556Z,28
2018-04-15T04:50:32.077Z,32
2018-04-15T04:51:12.626Z,32
2018-04-15T04:51:53.132Z,32
2018-04-15T04:52:33.654Z,36
2018-04-15T04:53:14.165Z,36
2018-04-15T04:53:54.682Z,36
2018-04-15T04:54:35.202Z,36
2018-04-15T04:55:15.699Z,36
2018-04-15T04:55:56.248Z,40
2018-04-15T04:56:36.758Z,40
2018-04-15T04:57:17.274Z,48
2018-04-15T04:57:57.799Z,48
2018-04-15T04:58:38.304Z,52
2018-04-15T04:59:18.826Z,52
2018-04-15T04:59:59.354Z,56
2018-04-15T05:00:39.881Z,56
2018-04-15T05:01:20.388Z,60
2018-04-15T05:02:00.899Z,64
2018-04-15T05:02:41.400Z,64
2018-04-15T05:03:21.897Z,68
2018-04-15T05:04:02.424Z,72
2018-04-15T05:04:42.910Z,76
2018-04-15T05:05:23.406Z,80
2018-04-15T05:06:03.918Z,80
2018-04-15T05:06:44.422Z,88
2018-04-15T05:07:24.951Z,92
2018-04-15T05:08:05.459Z,96
2018-04-15T05:08:45.963Z,96
2018-04-15T05:09:26.453Z,104
2018-04-15T05:10:06.898Z,104
2018-04-15T05:10:47.431Z,112
2018-04-15T05:11:27.931Z,112
2018-04-15T05:12:08.388Z,120
2018-04-15T05:12:48.882Z,120
2018-04-15T05:13:29.340Z,120
2018-04-15T05:14:09.883Z,132
2018-04-15T05:14:50.392Z,136
2018-04-15T05:15:30.871Z,136
2018-04-15T05:16:11.366Z,140
2018-04-15T05:16:51.860Z,144
2018-04-15T05:17:32.345Z,148
2018-04-15T05:18:12.861Z,148
2018-04-15T05:18:53.336Z,152
2018-04-15T05:19:33.843Z,156
2018-04-15T05:20:14.340Z,156
2018-04-15T05:20:54.812Z,156
2018-04-15T05:21:35.314Z,160
2018-04-15T05:22:15.781Z,168
2018-04-15T05:22:56.249Z,172
2018-04-15T05:23:36.710Z,180
2018-04-15T05:24:17.251Z,188
2018-04-15T05:24:57.832Z,192
2018-04-15T05:25:38.264Z,200
2018-04-15T05:26:18.793Z,200
2018-04-15T05:26:59.288Z,204
2018-04-15T05:27:39.784Z,204
2018-04-15T05:28:20.312Z,208
2018-04-15T05:29:00.806Z,208
2018-04-15T05:29:41.289Z,208
2018-04-15T05:30:21.775Z,204
2018-04-15T05:31:02.304Z,204
2018-04-15T05:31:42.836Z,200
2018-04-15T05:32:23.320Z,200
2018-04-15T05:33:03.804Z,200
2018-04-15T05:33:44.251Z,200
2018-04-15T05:34:24.784Z,200
2018-04-15T05:35:05.246Z,204
2018-04-15T05:35:45.809Z,208
2018-04-15T05:36:26.496Z,212
2018-04-15T05:37:07.027Z,220
2018-04-15T05:37:47.454Z,228
2018-04-15T05:38:28.001Z,236
2018-04-15T05:39:08.728Z,244
2018-04-15T05:39:49.241Z,260
2018-04-15T05:40:29.762Z,272
2018-04-15T05:41:10.246Z,280
2018-04-15T05:41:50.867Z,296
2018-04-15T05:42:31.349Z,308
2018-04-15T05:43:11.842Z,320
2018-04-15T05:43:52.337Z,336
2018-04-15T05:44:32.799Z,352
2018-04-15T05:45:13.509Z,372
2018-04-15T05:45:54.836Z,388
2018-04-15T05:46:35.339Z,400
2018-04-15T05:47:15.817Z,420
2018-04-15T05:47:56.318Z,440
2018-04-15T05:48:36.779Z,476
2018-04-15T05:49:17.280Z,512
2018-04-15T05:49:57.782Z,548
2018-04-15T05:50:38.240Z,584
2018-04-15T05:51:18.718Z,628
2018-04-15T05:51:59.919Z,652
2018-04-15T05:52:40.439Z,692
2018-04-15T05:53:20.934Z,732
2018-04-15T05:54:01.508Z,776
2018-04-15T05:54:42.005Z,804
2018-04-15T05:55:22.536Z,844
2018-04-15T05:56:03.045Z,884
2018-04-15T05:56:43.542Z,936
2018-04-15T05:57:24.040Z,984
2018-04-15T05:58:04.527Z,1016
2018-04-15T05:58:44.990Z,1052
2018-04-15T05:59:25.528Z,1076
2018-04-15T06:00:05.984Z,1096
2018-04-15T06:00:46.489Z,1124
2018-04-15T06:01:27.011Z,1172
2018-04-15T06:02:07.539Z,1208
2018-04-15T06:02:48.076Z,1248
2018-04-15T06:03:28.818Z,1252
2018-04-15T06:04:09.337Z,1272
2018-04-15T06:04:49.870Z,1280
2018-04-15T06:05:30.388Z,1260
2018-04-15T06:06:10.932Z,1260
2018-04-15T06:06:51.433Z,1284
2018-04-15T06:07:31.965Z,1268
2018-04-15T06:08:12.481Z,1296
2018-04-15T06:08:52.971Z,1388
2018-04-15T06:09:33.495Z,1388
2018-04-15T06:10:14.026Z,1356
2018-04-15T06:10:54.539Z,1412
2018-04-15T06:11:35.061Z,1424
2018-04-15T06:12:15.569Z,1424
2018-04-15T06:12:56.088Z,1420
2018-04-15T06:13:36.935Z,1516
2018-04-15T06:14:17.495Z,1556
2018-04-15T06:14:58.089Z,1552
2018-04-15T06:15:38.613Z,1592
2018-04-15T06:16:19.141Z,1624
2018-04-15T06:16:59.658Z,1632
2018-04-15T06:17:40.177Z,1716
2018-04-15T06:18:20.687Z,1760
2018-04-15T06:19:01.247Z,1780
2018-04-15T06:19:41.737Z,1808
2018-04-15T06:20:22.277Z,1852
2018-04-15T06:21:02.784Z,1900
2018-04-15T06:21:43.291Z,1940
2018-04-15T06:22:23.814Z,1988
2018-04-15T06:23:04.336Z,2016
2018-04-15T06:23:44.862Z,2060
2018-04-15T06:24:25.379Z,2076
2018-04-15T06:25:05.899Z,2064
2018-04-15T06:25:46.410Z,1868
2018-04-15T06:26:26.919Z,2216
2018-04-15T06:27:07.492Z,2260
2018-04-15T06:27:48.383Z,2272
2018-04-15T06:28:28.973Z,2304
2018-04-15T06:29:09.442Z,2332
2018-04-15T06:29:49.963Z,2364
2018-04-15T06:30:30.496Z,2388
2018-04-15T06:31:11.019Z,2404
2018-04-15T06:31:51.551Z,2412
2018-04-15T06:32:32.060Z,2432
2018-04-15T06:33:12.579Z,2456
2018-04-15T06:33:53.071Z,2468
2018-04-15T06:34:33.594Z,2488
2018-04-15T06:35:14.309Z,2508
2018-04-15T06:37:12.510Z,2540
2018-04-15T06:37:53.031Z,2588
2018-04-15T06:38:33.601Z,2628
2018-04-15T06:39:14.355Z,2660
2018-04-15T06:39:54.879Z,2696
2018-04-15T06:40:35.392Z,2700
2018-04-15T06:41:15.913Z,2748
2018-04-15T06:41:56.431Z,2780
2018-04-15T06:42:36.936Z,2792
2018-04-15T06:43:17.485Z,2788
2018-04-15T06:43:58.006Z,2860
2018-04-15T06:44:38.545Z,2864
2018-04-15T06:45:19.091Z,2804
2018-04-15T06:45:59.571Z,2832
2018-04-15T06:46:40.098Z,2828
2018-04-15T06:47:20.606Z,2824
2018-04-15T06:48:01.128Z,2808
2018-04-15T06:48:41.635Z,2780
2018-04-15T06:49:22.140Z,2740
2018-04-15T06:50:02.665Z,2756
2018-04-15T06:50:43.188Z,2728
2018-04-15T06:51:23.748Z,2668
2018-04-15T06:52:04.259Z,2596
2018-04-15T06:52:44.781Z,2472
2018-04-15T06:53:25.299Z,2380
2018-04-15T06:54:05.810Z,2264
2018-04-15T06:54:46.330Z,2224
2018-04-15T06:55:26.853Z,2204
2018-04-15T06:56:07.389Z,2252
2018-04-15T06:56:47.902Z,2212
2018-04-15T06:57:28.426Z,2220
2018-04-15T06:58:08.955Z,2192
2018-04-15T06:58:49.480Z,2208
2018-04-15T06:59:29.995Z,2228
2018-04-15T07:00:10.519Z,2324
2018-04-15T07:00:51.047Z,2388
2018-04-15T07:01:31.637Z,2464
2018-04-15T07:02:12.073Z,2516
2018-04-15T07:02:52.585Z,2572
2018-04-15T07:03:33.098Z,2732
2018-04-15T07:04:13.615Z,2848
2018-04-15T07:04:54.199Z,2948
2018-04-15T07:06:54.378Z,3132
2018-04-15T07:07:34.883Z,3116
2018-04-15T07:08:15.424Z,3124
2018-04-15T07:08:55.944Z,3064
2018-04-15T07:09:36.540Z,3012
2018-04-15T07:10:17.016Z,2932
2018-04-15T07:10:57.558Z,3200
2018-04-15T07:11:38.056Z,3192
2018-04-15T07:12:18.609Z,3004
2018-04-15T07:12:59.908Z,3196
2018-04-15T07:13:40.417Z,3124
2018-04-15T07:14:20.947Z,3072
2018-04-15T07:15:01.459Z,3240
2018-04-15T07:15:41.977Z,2932
2018-04-15T07:16:22.512Z,2336
2018-04-15T07:17:03.024Z,2668
2018-04-15T07:17:43.534Z,2372
2018-04-15T07:18:24.070Z,2240
2018-04-15T07:19:04.590Z,2232
2018-04-15T07:21:38.336Z,2432
2018-04-15T07:22:18.806Z,2348
2018-04-15T07:22:59.512Z,2168
2018-04-15T07:23:40.078Z,2076
2018-04-15T07:24:20.540Z,2064
2018-04-15T07:25:01.054Z,2112
2018-04-15T07:25:41.590Z,2160
2018-04-15T07:26:22.248Z,1992
2018-04-15T07:27:02.631Z,1924
2018-04-15T07:27:43.150Z,1916
2018-04-15T07:28:23.665Z,1988
2018-04-15T07:29:04.202Z,1924
2018-04-15T07:29:44.691Z,1916
2018-04-15T07:30:25.222Z,1920
2018-04-15T07:31:05.741Z,1876
2018-04-15T07:31:46.245Z,1888
2018-04-15T07:32:26.790Z,1904
2018-04-15T07:33:07.419Z,1940
2018-04-15T07:33:47.936Z,1888
2018-04-15T07:34:28.455Z,1876
2018-04-15T07:35:09.014Z,1908
2018-04-15T07:35:49.510Z,1876
2018-04-15T07:36:30.152Z,1796
2018-04-15T07:37:10.582Z,2392
2018-04-15T07:37:51.155Z,3112
2018-04-15T07:38:31.696Z,3100
2018-04-15T07:39:12.233Z,2480
2018-04-15T07:39:52.776Z,5724
2018-04-15T07:40:33.318Z,6072
2018-04-15T07:41:13.871Z,6140
2018-04-15T07:41:54.358Z,6268
2018-04-15T07:42:34.886Z,6384
2018-04-15T07:43:15.461Z,6440
2018-04-15T07:43:55.957Z,6524
2018-04-15T07:44:36.470Z,6508
2018-04-15T07:45:16.990Z,6568
2018-04-15T07:45:57.496Z,6528
2018-04-15T07:46:38.082Z,6460
2018-04-15T07:47:18.567Z,6472
2018-04-15T07:47:59.094Z,6452
2018-04-15T07:48:39.606Z,6508
2018-04-15T07:49:20.299Z,6652
2018-04-15T07:50:00.812Z,7012
2018-04-15T07:50:41.300Z,7204
2018-04-15T07:51:21.827Z,7036
2018-04-15T07:52:02.309Z,6940
2018-04-15T07:52:42.820Z,6976
2018-04-15T07:53:23.306Z,6972
2018-04-15T07:54:03.873Z,6896
2018-04-15T07:54:44.401Z,6800
2018-04-15T07:55:24.926Z,6700
2018-04-15T07:56:05.547Z,6624
2018-04-15T07:56:47.389Z,6700
2018-04-15T07:57:32.425Z,6804
2018-04-15T07:58:13.024Z,6796
2018-04-15T07:58:53.905Z,6644
2018-04-15T07:59:34.609Z,6620
2018-04-15T08:00:15.165Z,6556
2018-04-15T08:00:55.687Z,6396
2018-04-15T08:01:36.280Z,6180
2018-04-15T08:02:18.217Z,5944
2018-04-15T08:02:58.701Z,5708
2018-04-15T08:03:39.695Z,5640
2018-04-15T08:04:20.211Z,5508
2018-04-15T08:05:00.751Z,5512
2018-04-15T08:05:41.277Z,5596
2018-04-15T08:06:21.984Z,5632
2018-04-15T08:07:03.167Z,5612
2018-04-15T08:07:43.794Z,5616
2018-04-15T08:08:24.190Z,5632
2018-04-15T08:09:04.693Z,5724
2018-04-15T08:09:45.212Z,5812
2018-04-15T08:10:25.694Z,5896
2018-04-15T08:11:06.249Z,5960
2018-04-15T08:11:46.790Z,6148
2018-04-15T08:12:28.652Z,6408
2018-04-15T08:13:09.257Z,6480
2018-04-15T08:13:49.740Z,6440
2018-04-15T08:14:30.193Z,6412
2018-04-15T08:15:11.493Z,6512
2018-04-15T08:15:52.077Z,6388
2018-04-15T08:16:32.659Z,6572
2018-04-15T08:17:13.264Z,6488
2018-04-15T08:17:53.838Z,6636
2018-04-15T08:18:34.298Z,6368
2018-04-15T08:19:14.820Z,6432
2018-04-15T08:19:55.436Z,6256
2018-04-15T08:20:35.925Z,6304
2018-04-15T08:21:16.523Z,6184
2018-04-15T08:21:56.981Z,6080
2018-04-15T08:22:38.139Z,5944
2018-04-15T08:23:18.607Z,6056
2018-04-15T08:23:59.114Z,6120
2018-04-15T08:24:39.577Z,6020
2018-04-15T08:25:20.126Z,6256
2018-04-15T08:26:00.601Z,6208
2018-04-15T08:26:41.121Z,6100
2018-04-15T08:27:21.598Z,5924
2018-04-15T08:28:02.137Z,5776
2018-04-15T08:28:42.823Z,5504
2018-04-15T08:29:23.356Z,5428
2018-04-15T08:30:03.807Z,5344
2018-04-15T08:30:44.324Z,5276
2018-04-15T08:31:24.937Z,5252
2018-04-15T08:32:05.914Z,5248
2018-04-15T08:32:46.416Z,5272
2018-04-15T08:33:28.557Z,5316
2018-04-15T08:34:08.993Z,5392
2018-04-15T08:34:49.511Z,5392
2018-04-15T08:35:29.998Z,5368
2018-04-15T08:36:10.538Z,5352
2018-04-15T08:36:50.964Z,5360
2018-04-15T08:37:31.476Z,5292
2018-04-15T08:38:12.881Z,5308
2018-04-15T08:38:54.349Z,5348
2018-04-15T08:39:35.938Z,5332
2018-04-15T08:40:17.244Z,5244
2018-04-15T08:40:58.732Z,5100
2018-04-15T08:41:40.276Z,4668
2018-04-15T08:42:21.954Z,4684
2018-04-15T08:43:03.343Z,4836
2018-04-15T08:43:44.796Z,5456
2018-04-15T08:44:26.375Z,5780
2018-04-15T08:45:07.860Z,5976
2018-04-15T08:45:48.598Z,6276
2018-04-15T08:46:29.108Z,6504
2018-04-15T08:47:09.629Z,6632
2018-04-15T08:47:50.164Z,6624
2018-04-15T08:48:30.705Z,6368
2018-04-15T08:49:11.251Z,6456
2018-04-15T08:49:51.772Z,6692
2018-04-15T08:50:32.296Z,6732
2018-04-15T08:51:12.827Z,6852
2018-04-15T08:51:53.392Z,6928
2018-04-15T08:52:33.923Z,6868
2018-04-15T08:53:14.456Z,6836
2018-04-15T08:53:54.986Z,6760
2018-04-15T08:54:35.505Z,6648
2018-04-15T08:55:16.053Z,6348
2018-04-15T08:55:57.647Z,6236
2018-04-15T08:56:37.555Z,6032
2018-04-15T08:57:18.121Z,5988
2018-04-15T08:57:58.634Z,6044
2018-04-15T08:58:39.159Z,5880
2018-04-15T08:59:19.688Z,5864
2018-04-15T09:00:00.212Z,5892
2018-04-15T09:00:40.757Z,5408
2018-04-15T09:01:21.271Z,5580
2018-04-15T09:02:01.782Z,6028
2018-04-15T09:02:42.270Z,5880
2018-04-15T09:03:22.781Z,5732
2018-04-15T09:04:03.330Z,5792
2018-04-15T09:04:43.882Z,5900
2018-04-15T09:05:24.430Z,5936
2018-04-15T09:06:04.952Z,6100
2018-04-15T09:06:45.548Z,6240
2018-04-15T09:07:26.053Z,6200
2018-04-15T09:08:06.557Z,6252
2018-04-15T09:08:47.087Z,6728
2018-04-15T09:09:27.612Z,6512
2018-04-15T09:10:08.132Z,6400
2018-04-15T09:10:48.619Z,6244
2018-04-15T09:11:29.147Z,6096
2018-04-15T09:12:09.703Z,6068
2018-04-15T09:12:50.219Z,6048
2018-04-15T09:13:31.048Z,6316
2018-04-15T09:14:11.574Z,6228
2018-04-15T09:14:52.261Z,6252
2018-04-15T09:15:32.786Z,6204
2018-04-15T09:16:13.323Z,5996
2018-04-15T09:16:53.845Z,5712
2018-04-15T09:17:34.364Z,5444
2018-04-15T09:18:14.915Z,5264
2018-04-15T09:18:55.400Z,4912
2018-04-15T09:19:35.944Z,4684
2018-04-15T09:20:16.430Z,4644
2018-04-15T09:20:56.955Z,4768
2018-04-15T09:21:37.511Z,4932
2018-04-15T09:22:18.038Z,5164
2018-04-15T09:22:58.662Z,5364
2018-04-15T09:23:39.185Z,5480
2018-04-15T09:24:19.700Z,5532
2018-04-15T09:25:00.210Z,5652
2018-04-15T09:25:40.737Z,5916
2018-04-15T09:26:21.404Z,5944
2018-04-15T09:27:01.891Z,5884
2018-04-15T09:27:42.407Z,5700
2018-04-15T09:28:22.929Z,5548
2018-04-15T09:29:03.453Z,5484
2018-04-15T09:29:43.970Z,5480
2018-04-15T09:30:24.481Z,5396
2018-04-15T09:31:04.992Z,5324
2018-04-15T09:31:45.508Z,5116
2018-04-15T09:32:26.028Z,4932
2018-04-15T09:33:06.571Z,4828
2018-04-15T09:33:47.111Z,4868
2018-04-15T09:34:27.742Z,5020
2018-04-15T09:35:08.272Z,5236
2018-04-15T09:35:48.874Z,5236